Terminal Aerodrome Forecast
Issued by NWS Sioux Falls, SD

Home | Current Version | Previous Version | Text Only | Print | Product List | Glossary On
Versions: 1 2 3 4 5 6 7 8 9 10 11 12 13 14 15 16 17
802
FTUS43 KFSD 250520
TAFHON
TAF
KHON 250520Z 2506/2606 14013KT P6SM FEW250
     FM250900 15015G23KT P6SM SCT200 WS010/16045KT
     FM251300 16015G23KT P6SM SCT200
     FM251700 19013KT P6SM BKN140
     FM252100 23009KT P6SM BKN070
     FM252200 25008KT P6SM SCT090=

USA.gov is the U.S. government's official web portal to all federal, state and local government web resources and services.